Main page
METAR-TAF:

METAR-TAF

Airports :

Abeid Amani Karume International Airport

Zanzibar, Tanzania

latitude: 06-13S, longitude: 039-13E, elevation: 15 m

Current weather observation

The report was made 1 hour and 34 minutes ago, at 18:00 UTC
Wind 17 kt from the South/Southeast
Temperature 26°C
Humidity 70%
Pressure 1017 hPa
Visibility 10 km or more
Scattered clouds at a height of 1800 ft

METAR: HTZA 141800Z 15017KT 9999 SCT018 26/20 Q1017 NOSIG

Time: 22:34 (19:34 UTC)

Forecast

The report was made 2 hours and 34 minutes ago, at 17:00 UTC
Forecast valid from 14 at 18 UTC to 15 at 18 UTC
Wind 15 kt from the South/Southeast
Visibility 10 km or more
Broken clouds at a height of 1600 ft
Becoming
from 15 at 03 UTC to 15 at 06 UTC
Wind 10 kt from the South/Southwest
Becoming
from 15 at 10 UTC to 15 at 12 UTC
Wind 15 kt from the South/Southeast

TAF: HTZA 141700Z 1418/1518 15015KT 9999 BKN016 BECMG 1503/1506 21010KT BECMG 1510/1512 15015KT

Weather observations and forecasts of more than 4000 airports (METAR and TAF reports).

The available stations are represented by yellow and red dots on the map.

Hover mouse over dot to see the name of the station.

Then click to see weather observations and forecasts.

To change the map : click on the green buttons with a black cross to zoom in, on the green button with a dash to zoom out, or on the green arrows for adjacent maps.


METAR-TAF: